Terminal Aerodrome Forecast
Issued by NWS

Home | Current Version | Previous Version | Graphics & Text | Print | Product List | Glossary On
Versions: 1 2 3 4 5 6 7 8 9 10 11 12 13 14 15 16
049
FTUS43 KUNR 270520
TAFGCC
TAF
KGCC 270520Z 2706/2806 30005KT P6SM BKN430
     FM270800 27008KT P6SM OVC025
     FM271200 31010KT P6SM BKN100
     FM280000 33016KT P6SM SCT120
     FM280200 28011KT P6SM BKN100=

USA.gov is the U.S. government's official web portal to all federal, state and local government web resources and services.